This is the latest recevied weather packets stored in our database for station/object KF7PIZ. If no packets are shown the sender has not sent any weather packets the latest 10 day(s).
| Time | Temp. | Humidity | Pressure | Rain* | Wind** | Luminosity | Snow |
|---|---|---|---|---|---|---|---|
| 1776985954 | 19.44° C | 16% | 1016.9 hPa | 0 mm | - | 46 W/m² | - |
| 1776985652 | 20° C | 18% | 1016.9 hPa | 0 mm | - | 340 W/m² | - |
| 1776985347 | 19.44° C | 19% | 1017 hPa | 0 mm | - | 182 W/m² | - |
| 1776985043 | 18.89° C | 18% | 1017.2 hPa | 0 mm | - | 158 W/m² | - |
| 1776984739 | 20° C | 18% | 1017 hPa | 0 mm | - | 252 W/m² | - |
| 1776984435 | 20.56° C | 18% | 1017.1 hPa | 0 mm | - | 206 W/m² | - |
| 1776984131 | 20° C | 25% | 1017 hPa | 0 mm | - | 117 W/m² | - |
| 1776983826 | 20° C | 19% | 1017.5 hPa | 0 mm | - | 58 W/m² | - |
| 1776983523 | 20° C | 20% | 1017.4 hPa | 0 mm | - | 85 W/m² | - |
| 1776983219 | 19.44° C | 26% | 1017.2 hPa | 0 mm | - | 101 W/m² | - |
| 1776982918 | 18.89° C | 22% | 1017.2 hPa | 0 mm | - | 106 W/m² | - |
| 1776982614 | 18.89° C | 23% | 1017.1 hPa | 0 mm | - | 287 W/m² | - |
| 1776982310 | 19.44° C | 19% | 1017.5 hPa | 0 mm | - | 119 W/m² | - |
| 1776982010 | 19.44° C | 25% | 1017.5 hPa | 0 mm | - | 96 W/m² | - |
| 1776981705 | 18.89° C | 25% | 1017.7 hPa | 0 mm | - | 236 W/m² | - |
| 1776981400 | 20° C | 27% | 1017.4 hPa | 0 mm | - | 567 W/m² | - |
| 1776981097 | 19.44° C | 22% | 1017.9 hPa | 0 mm | - | 206 W/m² | - |
| 1776980793 | 20° C | 24% | 1017.4 hPa | 0 mm | - | 146 W/m² | - |
| 1776980491 | 20° C | 26% | 1017.9 hPa | 0 mm | - | 483 W/m² | - |
| 1776980186 | 20.56° C | 28% | 1017.9 hPa | 0 mm | - | 656 W/m² | - |
| 1776979883 | 20.56° C | 26% | 1018.2 hPa | 0 mm | - | 345 W/m² | - |
| 1776979579 | 20.56° C | 25% | 1018 hPa | 0 mm | - | 323 W/m² | - |
| 1776979274 | 19.44° C | 27% | 1018 hPa | 0 mm | - | 596 W/m² | - |
| 1776978972 | 18.89° C | 26% | 1018.3 hPa | 0 mm | - | 533 W/m² | - |
| 1776978668 | 17.78° C | 30% | 1018.5 hPa | 0 mm | - | 590 W/m² | - |
* Rain latest hour (hover to see other rain measurements)
** Current wind speed in m/s (hover to see current wind gust speed)